Time;durP1;ratioP1;P1;durP2;ratioP2;P2;SDS_P1;SDS_P2;PMS_P1;PMS_P2;Temp;Humidity;BMP_temperature;BMP_pressure;BME280_temperature;BME280_humidity;BME280_pressure;Samples;Min_cycle;Max_cycle;Signal;HPM_P1;HPM_P2
2022/04/19 00:07:09;;;;;;;1999.90;999.90;;;;;;;9.13;45.96;101063.63;15480176;28;20049;-60
2022/04/19 00:14:43;;;;;;;1999.90;999.90;;;;;;;8.89;47.28;101061.13;15485024;28;20038;-61
2022/04/19 00:22:17;;;;;;;1999.90;999.90;;;;;;;8.44;48.83;101054.63;15495712;28;20456;-58
2022/04/19 00:29:53;;;;;;;1999.90;999.90;;;;;;;8.02;49.73;101036.25;15495527;28;20092;-59
2022/04/19 00:37:26;;;;;;;1999.90;999.90;;;;;;;8.25;49.71;101032.47;15494696;28;20077;-57
2022/04/19 00:45:02;;;;;;;1999.90;999.90;;;;;;;8.04;50.63;101020.13;15478881;28;20082;-61
2022/04/19 00:52:37;;;;;;;1999.90;999.90;;;;;;;8.02;51.25;101033.47;15477561;28;20082;-60
2022/04/19 01:00:13;;;;;;;1999.90;999.90;;;;;;;8.11;51.34;101031.63;15477554;28;20439;-60
2022/04/19 01:07:52;;;;;;;1999.90;999.90;;;;;;;8.24;50.70;101021.66;15494012;28;20035;-60
2022/04/19 01:15:32;;;;;;;1999.90;999.90;;;;;;;8.27;51.74;101021.84;15480815;28;20488;-58
2022/04/19 01:23:10;;;;;;;1999.90;999.90;;;;;;;8.09;51.58;101031.94;15490990;28;20042;-59
2022/04/19 01:30:43;;;;;;;1999.90;999.90;;;;;;;7.95;51.79;101021.97;15458232;28;20085;-61
2022/04/19 01:38:20;;;;;;;1999.90;999.90;;;;;;;8.12;51.87;101019.38;15510494;28;20042;-60
2022/04/19 01:45:54;;;;;;;1999.90;999.90;;;;;;;7.68;51.99;101022.75;15531157;28;20046;-60
2022/04/19 01:53:30;;;;;;;1999.90;999.90;;;;;;;7.70;52.57;101018.53;15512899;28;20038;-61
2022/04/19 02:01:03;;;;;;;1999.90;999.90;;;;;;;7.78;52.67;101011.44;15517679;28;20057;-61
2022/04/19 02:08:36;;;;;;;1999.90;999.90;;;;;;;7.69;52.99;101002.97;15489683;28;20042;-60
2022/04/19 02:16:09;;;;;;;1999.90;999.90;;;;;;;7.64;52.44;101019.75;15503242;28;20046;-59
2022/04/19 02:23:44;;;;;;;1999.90;999.90;;;;;;;7.88;52.32;101002.09;15498071;28;20062;-60
2022/04/19 02:31:16;;;;;;;1999.90;999.90;;;;;;;7.61;53.65;101002.88;15490448;28;20046;-59
2022/04/19 02:38:59;;;;;;;1999.90;999.90;;;;;;;7.70;53.01;100987.97;15503002;28;20074;-61
2022/04/19 02:46:33;;;;;;;1999.90;999.90;;;;;;;7.46;54.30;100990.91;15492060;28;20057;-58
2022/04/19 02:54:10;;;;;;;1999.90;999.90;;;;;;;7.56;53.69;100986.31;15489639;28;20050;-60
2022/04/19 03:01:43;;;;;;;1999.90;999.90;;;;;;;6.98;55.34;100987.56;15477322;28;20111;-59
2022/04/19 03:09:17;;;;;;;1999.90;999.90;;;;;;;7.19;55.13;100985.28;15467972;28;20451;-61
2022/04/19 03:16:50;;;;;;;1999.90;999.90;;;;;;;7.05;55.46;100976.94;15475251;28;20076;-59
2022/04/19 03:32:19;;;;;;;1999.90;999.90;;;;;;;6.77;55.89;100978.75;15463892;28;20065;-59
2022/04/19 03:39:52;;;;;;;1999.90;999.90;;;;;;;6.76;56.67;100966.03;15496270;28;20069;-60
2022/04/19 03:47:25;;;;;;;1999.90;999.90;;;;;;;6.65;56.11;100975.63;15490099;28;20073;-58
2022/04/19 03:54:59;;;;;;;1999.90;999.90;;;;;;;6.65;56.86;100973.66;15478773;28;20046;-59
2022/04/19 04:02:33;;;;;;;1999.90;999.90;;;;;;;6.43;57.21;100979.00;15476525;28;20109;-59
2022/04/19 04:10:10;;;;;;;1999.90;999.90;;;;;;;6.50;57.07;100982.22;15455235;28;20141;-60
2022/04/19 04:17:43;;;;;;;1999.90;999.90;;;;;;;6.45;57.07;100979.50;15475042;28;20050;-59
2022/04/19 04:25:16;;;;;;;1999.90;999.90;;;;;;;6.46;57.66;100974.78;15479826;28;20042;-60
2022/04/19 04:32:50;;;;;;;1999.90;999.90;;;;;;;6.53;57.70;100981.63;15475650;28;20120;-60
2022/04/19 04:40:24;;;;;;;1999.90;999.90;;;;;;;6.47;58.00;100974.53;15458919;28;20049;-60
2022/04/19 04:55:58;;;;;;;1999.90;999.90;;;;;;;6.86;56.65;100982.50;15486395;28;20439;-59
2022/04/19 05:03:34;;;;;;;1999.90;999.90;;;;;;;7.24;55.25;100980.50;15471148;28;20137;-59
2022/04/19 05:11:08;;;;;;;1999.90;999.90;;;;;;;7.47;55.29;100989.78;15498406;28;20041;-59
2022/04/19 05:18:41;;;;;;;1999.90;999.90;;;;;;;8.18;54.69;100993.13;15470679;28;20122;-59
2022/04/19 05:26:18;;;;;;;1999.90;999.90;;;;;;;8.51;52.91;100988.25;15502851;28;20045;-59
2022/04/19 05:33:51;;;;;;;1999.90;999.90;;;;;;;8.72;52.36;100990.56;15522887;28;20519;-60
2022/04/19 05:41:27;;;;;;;1999.90;999.90;;;;;;;8.89;51.33;100993.50;15517356;28;20078;-60
2022/04/19 05:49:04;;;;;;;1999.90;999.90;;;;;;;9.36;51.05;101019.06;15514108;28;20097;-60
2022/04/19 05:56:38;;;;;;;1999.90;999.90;;;;;;;10.20;49.22;101010.63;15474398;28;20393;-60
2022/04/19 06:12:06;;;;;;;1999.90;999.90;;;;;;;10.85;48.18;101020.97;15507824;28;20042;-61
2022/04/19 06:19:44;;;;;;;1999.90;999.90;;;;;;;11.21;46.86;101011.44;15504454;28;20132;-60
2022/04/19 06:27:20;;;;;;;1999.90;999.90;;;;;;;12.00;45.06;101019.31;15469567;28;20039;-59
2022/04/19 06:34:54;;;;;;;1999.90;999.90;;;;;;;12.32;43.78;101023.44;15485057;28;20047;-60
2022/04/19 06:42:30;;;;;;;1999.90;999.90;;;;;;;12.84;42.95;101025.91;15474237;28;20039;-60
2022/04/19 06:50:23;;;;;;;1999.90;999.90;;;;;;;13.79;41.70;101033.47;15462202;28;20039;-60
2022/04/19 06:57:58;;;;;;;1999.90;999.90;;;;;;;13.86;41.65;101050.56;15452931;28;20050;-60
2022/04/19 07:05:30;;;;;;;1999.90;999.90;;;;;;;14.13;39.63;101057.47;15456867;28;20066;-62
2022/04/19 07:13:06;;;;;;;1999.90;999.90;;;;;;;14.59;37.28;101041.41;15420476;28;20516;-61
2022/04/19 07:28:35;;;;;;;1999.90;999.90;;;;;;;15.37;35.36;101034.50;15495102;28;20581;-61
2022/04/19 07:36:08;;;;;;;1999.90;999.90;;;;;;;16.32;34.14;101040.28;15478060;28;20050;-62
2022/04/19 07:43:43;;;;;;;1999.90;999.90;;;;;;;16.51;35.37;101042.38;15477455;28;20578;-61
2022/04/19 07:51:16;;;;;;;1999.90;999.90;;;;;;;15.56;34.20;101045.91;15493974;28;20043;-59
2022/04/19 07:58:50;;;;;;;1999.90;999.90;;;;;;;16.58;32.16;101049.00;15479829;28;20141;-61
2022/04/19 08:06:23;;;;;;;1999.90;999.90;;;;;;;16.89;31.54;101041.69;15493033;28;20070;-60
2022/04/19 08:13:57;;;;;;;1999.90;999.90;;;;;;;17.80;32.03;101042.00;15492160;28;20042;-61
2022/04/19 08:21:29;;;;;;;1999.90;999.90;;;;;;;17.56;31.99;101036.66;15488452;28;20042;-61
2022/04/19 08:29:03;;;;;;;1999.90;999.90;;;;;;;15.63;31.55;101038.84;15477774;28;20046;-61
2022/04/19 08:36:36;;;;;;;1999.90;999.90;;;;;;;16.83;30.90;101026.25;15477760;28;20101;-62
2022/04/19 08:44:11;;;;;;;1999.90;999.90;;;;;;;17.00;29.89;101028.66;15459482;28;20050;-62
2022/04/19 08:51:45;;;;;;;1999.90;999.90;;;;;;;18.41;29.12;101043.06;15492159;28;20129;-60
2022/04/19 08:59:28;;;;;;;1999.90;999.90;;;;;;;19.61;29.70;101031.88;15495184;28;20054;-61
2022/04/19 09:07:01;;;;;;;1999.90;999.90;;;;;;;19.39;28.00;101021.47;15493868;28;20050;-62
2022/04/19 09:14:34;;;;;;;;;;;;;;;20.26;29.98;101033.34;15495450;28;20401;-62
2022/04/19 09:22:09;;;;;;;1999.90;999.90;;;;;;;19.71;28.68;101030.38;15497952;28;20402;-62
2022/04/19 09:29:42;;;;;;;1999.90;999.90;;;;;;;20.93;28.37;101031.00;15475777;28;20042;-61
2022/04/19 09:37:14;;;;;;;1999.90;999.90;;;;;;;19.16;27.96;101021.56;15491185;28;20050;-61
2022/04/19 09:44:51;;;;;;;1999.90;999.90;;;;;;;19.15;28.70;101028.44;15482570;28;20050;-61
2022/04/19 09:52:48;;;;;;;1999.90;999.90;;;;;;;22.10;27.62;101030.69;15485644;28;20038;-61
2022/04/19 10:00:24;;;;;;;1999.90;999.90;;;;;;;20.26;27.27;101039.81;15469735;28;20051;-60
2022/04/19 10:08:14;;;;;;;1999.90;999.90;;;;;;;19.98;26.05;101031.84;15441762;28;20102;-63
2022/04/19 10:15:48;;;;;;;1999.90;999.90;;;;;;;20.32;25.82;101032.59;15460875;28;20068;-61
2022/04/19 10:23:21;;;;;;;1999.90;999.90;;;;;;;20.59;26.68;101035.25;15483065;28;20522;-60
2022/04/19 10:30:56;;;;;;;1999.90;999.90;;;;;;;21.17;26.61;101029.53;15499809;28;20042;-61
2022/04/19 10:38:29;;;;;;;1999.90;999.90;;;;;;;20.61;26.39;101021.47;15513751;28;20504;-61
2022/04/19 10:46:19;;;;;;;1999.90;999.90;;;;;;;19.23;27.67;101019.66;15482603;28;20038;-60
2022/04/19 10:53:51;;;;;;;1999.90;999.90;;;;;;;21.76;26.94;101018.81;15428549;28;20047;-62
2022/04/19 11:01:32;;;;;;;1999.90;999.90;;;;;;;19.91;26.99;101019.66;15438171;28;20051;-61
2022/04/19 11:09:09;;;;;;;1999.90;999.90;;;;;;;20.01;27.50;101010.44;15420585;28;20058;-61
2022/04/19 11:16:44;;;;;;;1999.90;999.90;;;;;;;20.08;27.63;101013.34;15449862;28;20074;-62
2022/04/19 11:24:54;;;;;;;1999.90;999.90;;;;;;;19.02;28.62;101008.06;15490377;28;20100;-60
2022/04/19 11:32:28;;;;;;;1999.90;999.90;;;;;;;18.87;30.76;101006.25;15462378;28;20077;-62
2022/04/19 11:47:52;;;;;;;1999.90;999.90;;;;;;;18.31;29.45;101012.63;15495115;28;20070;-62
2022/04/19 11:55:25;;;;;;;1999.90;999.90;;;;;;;17.96;30.11;101018.50;15477453;28;20495;-61
2022/04/19 12:02:59;;;;;;;1999.90;999.90;;;;;;;20.17;28.59;101014.63;15492758;28;20057;-62
2022/04/19 12:10:31;;;;;;;1999.90;999.90;;;;;;;21.43;26.26;101017.09;15493741;28;20043;-60
2022/04/19 12:18:07;;;;;;;1999.90;999.90;;;;;;;20.56;27.02;101025.50;15493302;28;20130;-61
2022/04/19 12:25:39;;;;;;;1999.90;999.90;;;;;;;23.52;26.79;101012.50;15492658;28;20046;-61
2022/04/19 12:33:15;;;;;;;1999.90;999.90;;;;;;;20.50;28.44;101017.75;15493720;28;20038;-61
2022/04/19 12:40:47;;;;;;;1999.90;999.90;;;;;;;21.12;27.67;101012.88;15493580;28;20508;-60
2022/04/19 12:48:22;;;;;;;1999.90;999.90;;;;;;;17.85;31.88;101024.75;15493495;28;20523;-61
2022/04/19 12:56:38;;;;;;;1999.90;999.90;;;;;;;19.68;29.18;101011.31;15475902;28;20101;-61
2022/04/19 13:04:11;;;;;;;1999.90;999.90;;;;;;;17.30;33.55;101015.59;15476106;28;20085;-61
2022/04/19 13:19:35;;;;;;;1999.90;999.90;;;;;;;23.36;25.48;101005.69;15474506;28;20134;-61
2022/04/19 13:27:08;;;;;;;1999.90;999.90;;;;;;;26.21;20.93;101011.38;15504062;28;20047;-61
2022/04/19 13:34:42;;;;;;;1999.90;999.90;;;;;;;25.36;23.19;101002.78;15490770;28;20054;-61
2022/04/19 13:42:14;;;;;;;1999.90;999.90;;;;;;;22.08;25.81;101004.66;15492531;28;20101;-60
2022/04/19 13:49:47;;;;;;;1999.90;999.90;;;;;;;17.75;31.68;101005.63;15486197;28;20125;-60
2022/04/19 13:57:20;;;;;;;1999.90;999.90;;;;;;;16.44;33.00;101003.56;15463755;28;20097;-61
2022/04/19 14:04:54;;;;;;;1999.90;999.90;;;;;;;18.10;33.00;101008.25;15498149;28;20057;-62
2022/04/19 14:12:28;;;;;;;1999.90;999.90;;;;;;;17.94;31.24;101007.59;15450437;28;20147;-61
2022/04/19 14:20:01;;;;;;;1999.90;999.90;;;;;;;17.04;32.70;101001.34;15423234;28;20137;-61
2022/04/19 14:27:34;;;;;;;1999.90;999.90;;;;;;;16.50;32.61;100995.66;15472417;28;20125;-61
2022/04/19 14:35:08;;;;;;;1999.90;999.90;;;;;;;16.72;32.43;100992.19;15498483;28;20060;-61
2022/04/19 14:42:40;;;;;;;1999.90;999.90;;;;;;;17.26;31.53;100988.50;15514076;28;20043;-61
2022/04/19 14:50:14;;;;;;;1999.90;999.90;;;;;;;16.65;33.44;100997.63;15499450;28;20047;-61
2022/04/19 14:57:46;;;;;;;1999.90;999.90;;;;;;;16.09;33.48;101007.16;15512421;28;20748;-61
2022/04/19 15:05:20;;;;;;;1999.90;999.90;;;;;;;15.83;33.90;101004.03;15437598;28;20046;-58
2022/04/19 15:12:52;;;;;;;;;;;;;;;15.90;33.94;100997.78;15435922;28;20046;-60
2022/04/19 15:20:26;;;;;;;1999.90;999.90;;;;;;;15.74;34.65;100997.78;15437447;28;19977;-60
2022/04/19 15:27:59;;;;;;;1999.90;999.90;;;;;;;16.35;34.98;101002.94;15463036;28;20050;-61
2022/04/19 15:35:32;;;;;;;1999.90;999.90;;;;;;;16.24;34.30;100994.25;15461711;28;20504;-61
2022/04/19 15:43:06;;;;;;;1999.90;999.90;;;;;;;16.04;34.13;100992.53;15473691;28;20054;-61
2022/04/19 15:50:42;;;;;;;1999.90;999.90;;;;;;;16.45;32.37;101008.00;15460368;28;20047;-61
2022/04/19 15:58:14;;;;;;;1999.90;999.90;;;;;;;16.41;32.30;101007.13;15417897;28;20089;-60
2022/04/19 16:05:48;;;;;;;1999.90;999.90;;;;;;;15.82;33.50;100997.59;15452815;28;20068;-61
2022/04/19 16:13:20;;;;;;;;;;;;;;;15.85;34.46;101007.34;15494709;28;20034;-61
2022/04/19 16:28:44;;;;;;;1999.90;999.90;;;;;;;15.54;33.78;101000.44;15531850;28;20053;-64
2022/04/19 16:36:18;;;;;;;1999.90;999.90;;;;;;;15.85;34.45;101015.78;15536331;28;20511;-64
2022/04/19 16:43:50;;;;;;;;;;;;;;;15.47;34.32;101003.06;15500813;28;20049;-61
2022/04/19 16:51:23;;;;;;;1999.90;999.90;;;;;;;15.83;34.22;101004.84;15498707;28;19985;-61
2022/04/19 16:58:55;;;;;;;;;;;;;;;15.56;34.56;101000.91;15505333;28;20035;-62
2022/04/19 17:06:30;;;;;;;1999.90;999.90;;;;;;;15.44;35.74;101017.03;15509059;28;19922;-60
2022/04/19 17:14:03;;;;;;;1999.90;999.90;;;;;;;15.23;35.32;101022.84;15527585;28;20054;-61
2022/04/19 17:21:36;;;;;;;1999.90;999.90;;;;;;;15.13;35.40;101020.56;15527835;28;20877;-60
2022/04/19 17:29:08;;;;;;;1999.90;999.90;;;;;;;14.92;36.09;101031.97;15510615;28;20060;-61
2022/04/19 17:36:43;;;;;;;1999.90;999.90;;;;;;;14.84;35.82;101041.34;15503719;28;20075;-60
2022/04/19 17:44:18;;;;;;;1999.90;999.90;;;;;;;14.85;36.18;101046.59;15483065;28;20078;-62
2022/04/19 17:59:46;;;;;;;1999.90;999.90;;;;;;;14.85;36.34;101062.66;15480793;28;20137;-60
2022/04/19 18:07:20;;;;;;;1999.90;999.90;;;;;;;14.55;36.88;101064.91;15500029;28;20072;-61
2022/04/19 18:14:52;;;;;;;1999.90;999.90;;;;;;;14.36;38.33;101073.88;15497310;28;20499;-60
2022/04/19 18:30:29;;;;;;;1999.90;999.90;;;;;;;14.12;40.42;101099.94;15378705;28;20136;-57
2022/04/19 18:38:02;;;;;;;1999.90;999.90;;;;;;;13.65;42.22;101110.63;15489430;28;20046;-57
2022/04/19 18:45:38;;;;;;;1999.90;999.90;;;;;;;13.80;44.16;101115.63;15466633;28;20055;-56
2022/04/19 18:53:11;;;;;;;1999.90;999.90;;;;;;;13.68;45.31;101135.22;15477938;28;20053;-59
2022/04/19 19:00:44;;;;;;;1999.90;999.90;;;;;;;13.74;46.15;101156.25;15473885;28;20044;-56
2022/04/19 19:08:17;;;;;;;1999.90;999.90;;;;;;;13.63;46.98;101158.66;15475722;28;20326;-60
2022/04/19 19:15:50;;;;;;;;;;;;;;;13.62;46.79;101173.84;15479023;28;20554;-62
2022/04/19 19:23:23;;;;;;;1999.90;999.90;;;;;;;13.60;47.41;101186.56;15496088;28;19921;-58
2022/04/19 19:30:55;;;;;;;1999.90;999.90;;;;;;;13.32;47.95;101187.09;15493245;28;20050;-58
2022/04/19 19:38:29;;;;;;;1999.90;999.90;;;;;;;13.29;48.17;101188.59;15491770;28;20046;-61
2022/04/19 19:46:02;;;;;;;1999.90;999.90;;;;;;;13.27;48.14;101201.31;15492396;28;20542;-57
2022/04/19 19:53:35;;;;;;;1999.90;999.90;;;;;;;13.24;48.25;101199.22;15467888;28;20121;-58
2022/04/19 20:01:07;;;;;;;;;;;;;;;13.20;48.19;101201.84;15476618;28;20046;-59
2022/04/19 20:08:43;;;;;;;1999.90;999.90;;;;;;;13.16;48.48;101211.25;15487532;28;19926;-57
2022/04/19 20:16:16;;;;;;;1999.90;999.90;;;;;;;12.85;49.24;101209.59;15493252;28;20058;-61
2022/04/19 20:23:50;;;;;;;1999.90;999.90;;;;;;;13.11;49.00;101211.44;15504897;28;20105;-58
2022/04/19 20:31:22;;;;;;;;;;;;;;;12.95;48.61;101203.63;15495965;28;20410;-62
2022/04/19 20:38:55;;;;;;;1999.90;999.90;;;;;;;13.01;49.06;101221.03;15474579;28;19921;-62
2022/04/19 20:50:07;;;;;;;1999.90;999.90;;;;;;;12.84;48.69;101221.13;15492266;28;20106;-59
2022/04/19 20:54:22;;;;;;;1999.90;999.90;;;;;;;12.98;48.75;101228.13;15459614;28;20046;-61
2022/04/19 21:01:55;;;;;;;1999.90;999.90;;;;;;;12.56;49.47;101227.16;15457024;28;20118;-60
2022/04/19 21:09:28;;;;;;;1999.90;999.90;;;;;;;12.34;49.54;101228.22;15474308;28;20451;-61
2022/04/19 21:17:01;;;;;;;1999.90;999.90;;;;;;;12.09;50.77;101224.31;15491066;28;20595;-60
2022/04/19 21:24:35;;;;;;;1999.90;999.90;;;;;;;12.21;50.14;101232.03;15496407;28;20067;-59
2022/04/19 21:32:08;;;;;;;1999.90;999.90;;;;;;;12.18;50.40;101237.44;15469893;28;20045;-62
2022/04/19 21:39:42;;;;;;;1999.90;999.90;;;;;;;12.04;51.12;101227.25;15503166;28;20101;-60
2022/04/19 21:47:15;;;;;;;1999.90;999.90;;;;;;;11.77;51.34;101230.34;15500868;28;20042;-60
2022/04/19 21:54:49;;;;;;;1999.90;999.90;;;;;;;11.49;52.71;101232.66;15500552;28;20050;-61
2022/04/19 22:02:21;;;;;;;1999.90;999.90;;;;;;;11.19;52.89;101231.63;15448060;28;20105;-58
2022/04/19 22:09:57;;;;;;;1999.90;999.90;;;;;;;10.87;53.87;101227.25;15503769;28;20047;-59
2022/04/19 22:17:29;;;;;;;1999.90;999.90;;;;;;;10.76;54.27;101221.13;15485868;28;20061;-59
2022/04/19 22:25:03;;;;;;;1999.90;999.90;;;;;;;10.61;54.15;101229.91;15481506;28;20047;-58
2022/04/19 22:32:36;;;;;;;1999.90;999.90;;;;;;;10.48;54.57;101219.66;15475645;28;20098;-58
2022/04/19 22:40:11;;;;;;;1999.90;999.90;;;;;;;10.37;55.11;101217.16;15485977;28;20074;-59
2022/04/19 22:47:43;;;;;;;1999.90;999.90;;;;;;;10.17;56.45;101222.41;15500865;28;20051;-59
2022/04/19 22:55:16;;;;;;;1999.90;999.90;;;;;;;9.99;56.39;101227.84;15500479;28;20411;-61
2022/04/19 23:02:49;;;;;;;1999.90;999.90;;;;;;;9.74;57.74;101225.69;15500679;28;20400;-60
2022/04/19 23:10:22;;;;;;;1999.90;999.90;;;;;;;9.62;57.72;101222.63;15483492;28;20042;-60
2022/04/19 23:17:55;;;;;;;1999.90;999.90;;;;;;;9.40;58.59;101231.78;15499740;28;20050;-59
2022/04/19 23:25:28;;;;;;;1999.90;999.90;;;;;;;9.26;58.81;101217.84;15485886;28;20137;-59
2022/04/19 23:33:00;;;;;;;1999.90;999.90;;;;;;;9.12;59.35;101222.63;15485399;28;20043;-61
2022/04/19 23:40:37;;;;;;;1999.90;999.90;;;;;;;8.98;59.46;101225.44;15498890;28;20050;-60
2022/04/19 23:48:09;;;;;;;1999.90;999.90;;;;;;;8.92;59.81;101232.22;15480304;28;20097;-61
2022/04/19 23:55:43;;;;;;;1999.90;999.90;;;;;;;8.76;60.80;101234.50;15497090;28;20042;-61
